Aérodrome :
LOGIN :

S'inscrire | Disclaimer

   EN    FR    IT 

 










Légende :    VFR   VFR Marginal   IFR   IFR Intensif   IFR Très Intensif
Visi : 
Plafond : 
>= 8 km
>= 3000ft
5 à 8 km
1000 à 3000 ft
1500m à 5 km
500 à 1000 ft
800 à 1500m
200 à 500 ft
< 800m
< 200 ft
Symboles :   Orages  Brouillard  Fortes neiges  Fortes précipitations  Vent > 20 kt
SIGMETs :   Divers  Orages  Givrage  Turbulence  Onde Orograph.  Cendres Volcan.






- Altitude de l'aérodrome : 436 ft
- Code IATA : ANG


LFBU - Angoulême Brie Champniers

DERNIER METAR :
  • 201830Z AUTO 29005KT 9999 BKN010 OVC018 12/11 Q1009 TEMPO 3000 SHRA BKN005 BKN030TCU

METARs EXPIRÉS :
  • 201800Z AUTO 29004KT 9999 BKN011 OVC018 12/11 Q1008 TEMPO 3000 SHRA BKN005 BKN030TCU
  • 201730Z AUTO 33008KT 9999 SCT007 BKN016 OVC023 11/11 Q1007 TEMPO 24010KT 3000 SHRA BKN005 BKN030TCU
  • 201700Z AUTO 33010KT 9000 BKN008 OVC016 12/11 Q1007 TEMPO 24010KT 3000 SHRA BKN005 SCT020CB BKN030TCU
  • 201630Z AUTO 33009KT 9999 OVC009 12/11 Q1006 TEMPO 24010KT 3000 SHRA BKN005 SCT020CB BKN030TCU
  • 201600Z AUTO 34008KT 9999 BKN010 OVC020 13/11 Q1005 TEMPO 24010KT 3000 SHRA BKN005 SCT020CB BKN030TCU

TAF TAF LFBU
Valide du 20 à 18h jusqu'au 21 à 18h UTC


201700Z 2018/2118 33008KT 9999 BKN020
TEMPO 2018/2024 24010KT 3000 SHRA BKN005 BKN030TCU
BECMG 2100/2102 18005KT BKN014
TEMPO 2100/2108 1500 BR BKN003
BECMG 2112/2114 OVC035



MET'MAP, la Météo Aéronautique d'un coup d'oeil ! - Copyright ORBIFLY Décembre 2007 - Disclaimer

ORBIFLY MET'MAP TEAM :

Programmation & Développement : Alexandra Zaïnal
Conception & Développement : Baudouin d'Aumeries
Co-Programmation & Développement : Marc-Olivier Méhu
Soutien technique & logistique : Manuel Goepfert

Contact : metmap@orbifly.com




SOURCES & CREDITS :

   NOAA